Airfield :
LOGIN :

Register | Disclaimer

   EN    FR    IT 

 










Legend :    VFR   Marginal VFR   IFR   Intensive IFR   Very Intensive IFR
Visi :
Ceiling :
>= 8 km
>= 3000ft
5 to 8 km
1000 to 3000 ft
1500m to 5 km
500 to 1000 ft
800 to 1500m
200 to 500 ft
< 800m
< 200 ft
Symbols :   Thunderstorms  Fog  Heavy snow  Heavy precipitations  Wind > 20 kt
SIGMETs :     Misc.  Thunderstorms  Icing  Turbulence  Mountain Waves  Volcanic Ashes






- Airport Elevation : 670 ft
- IATA code : MSQ


UMMS - Minsk - 2

CURRENT METAR :
  • 231600Z 25006G10MPS CAVOK 04/M01 Q0999 R88/CLRD// NOSIG

EXPIRED METARs :
  • 231530Z 24005G09MPS 9999 BKN043 04/M02 Q0999 R88/D NOSIG
  • 231500Z 25004G07MPS 9999 BKN040 04/M02 Q0999 R88/D NOSIG
  • 231430Z 25007G10MPS CAVOK 05/M02 Q0999 R88/D NOSIG
  • 231400Z 26009G13MPS 9999 BKN045 05/M03 Q1000 R88/D NOSIG
  • 231330Z 25007G11MPS 230V290 9999 BKN038 05/M02 Q1000 R88/D NOSIG

TAF TAF UMMS
Valid from the 23 at 12:00 until the 24 at 12:00 UTC


231101Z 2312/2412 25008G13MPS 9999 BKN015 TX05/2312Z TNM00/2403Z
TEMPO 2312/2318 28014G19MPS 1500 SHRASN BKN004 BKN017CB
TEMPO 2318/2406 1200 SHSNRA BR BKN003 BKN013CB
TEMPO 2406/2412 28009G14MPS 2100 -SHRA BKN004 BKN013CB



MET'MAP, your aeronautical weather chart ! - Copyright ORBIFLY December 2007 - Disclaimer

ORBIFLY MET'MAP TEAM :

Programming & Development : Alexandra Zaïnal
Concept & original design : Baudouin d'Aumeries
Assistance for programming : Marc-Olivier Méhu
Technical & hardware support : Manuel Goepfert

Contact : metmap@orbifly.com




SOURCES & CREDITS :

   NOAA